createdAt,value
2019-05-12T00:00:07.895Z,1.3918
2019-05-12T00:00:18.251Z,1.3842
2019-05-12T00:00:28.593Z,1.8635
2019-05-12T00:00:35.634Z,0.9564
2019-05-12T00:00:48.352Z,0.9266
2019-05-12T00:00:58.425Z,0.4648
2019-05-12T00:01:08.632Z,0.4639
2019-05-12T00:01:18.695Z,1.8456
2019-05-12T00:01:28.497Z,1.8558
2019-05-12T00:01:36.271Z,0.9296
2019-05-12T00:01:48.098Z,0.2478
2019-05-12T00:01:55.749Z,0.9326
2019-05-12T00:02:07.595Z,0.9283
2019-05-12T00:02:17.854Z,0.4659
2019-05-12T00:02:25.471Z,0.4603
2019-05-12T00:02:35.759Z,0.0000
2019-05-12T00:02:48.453Z,0.4639
2019-05-12T00:02:59.096Z,1.3861
2019-05-12T00:03:08.564Z,2.7888
2019-05-12T00:03:18.853Z,0.9296
2019-05-12T00:03:27.649Z,1.3983
2019-05-12T00:03:47.981Z,1.3867
2019-05-12T00:03:58.107Z,1.3867
2019-05-12T00:04:08.091Z,1.3867
2019-05-12T00:04:16.030Z,0.8912
2019-05-12T00:04:28.054Z,0.9519
2019-05-12T00:04:35.647Z,0.9292
2019-05-12T00:04:48.830Z,0.4659
2019-05-12T00:04:58.256Z,0.9279
2019-05-12T00:05:05.839Z,1.8481
2019-05-12T00:05:18.518Z,0.9224
2019-05-12T00:05:27.985Z,0.0000
2019-05-12T00:05:35.636Z,0.0000
2019-05-12T00:05:48.307Z,0.0000
2019-05-12T00:05:57.784Z,1.8123
2019-05-12T00:06:05.438Z,1.8405
2019-05-12T00:06:17.679Z,2.7494
2019-05-12T00:06:28.465Z,1.8481
2019-05-12T00:06:38.756Z,1.3976
2019-05-12T00:06:47.852Z,1.3741
2019-05-12T00:06:58.378Z,1.8050
2019-05-12T00:07:08.556Z,1.3874
2019-05-12T00:07:18.050Z,1.8498
2019-05-12T00:07:25.716Z,1.3791
2019-05-12T00:07:37.940Z,1.3779
2019-05-12T00:07:48.384Z,1.3925
2019-05-12T00:07:58.943Z,0.9283
2019-05-12T00:08:08.302Z,1.3861
2019-05-12T00:08:18.697Z,1.8481
2019-05-12T00:08:27.752Z,1.8609
2019-05-12T00:08:38.140Z,0.9339
2019-05-12T00:08:45.784Z,1.3938
2019-05-12T00:08:57.844Z,1.3835
2019-05-12T00:09:05.524Z,1.3899
2019-05-12T00:09:18.636Z,0.9279
2019-05-12T00:09:28.267Z,0.4134
2019-05-12T00:09:38.677Z,0.0000
2019-05-12T00:09:47.961Z,0.4637
2019-05-12T00:09:58.126Z,0.4635
2019-05-12T00:10:05.711Z,0.0000
2019-05-12T00:10:17.787Z,1.2724
2019-05-12T00:10:25.530Z,1.3918
2019-05-12T00:10:38.521Z,1.2660
2019-05-12T00:10:47.858Z,0.9232
2019-05-12T00:10:55.441Z,1.3804
2019-05-12T00:11:08.940Z,1.3829
2019-05-12T00:11:17.958Z,1.8338
2019-05-12T00:11:25.580Z,0.9203
2019-05-12T00:11:37.874Z,1.8473
2019-05-12T00:11:45.570Z,1.8271
2019-05-12T00:11:59.053Z,0.4539
2019-05-12T00:12:08.249Z,0.4622
2019-05-12T00:12:15.847Z,0.9313
2019-05-12T00:12:27.645Z,1.3970
2019-05-12T00:12:35.363Z,1.3785
2019-05-12T00:12:48.284Z,1.3931
2019-05-12T00:12:58.179Z,1.3918
2019-05-12T00:13:08.156Z,1.3996
2019-05-12T00:13:15.971Z,0.9275
2019-05-12T00:13:27.844Z,0.9236
2019-05-12T00:13:35.597Z,0.4597
2019-05-12T00:13:47.903Z,0.0000
2019-05-12T00:13:58.617Z,0.0000
2019-05-12T00:14:08.567Z,0.0000
2019-05-12T00:14:17.847Z,0.0000
2019-05-12T00:14:25.499Z,0.0000
2019-05-12T00:15:05.230Z,0.9534
2019-05-12T00:15:28.808Z,0.0835
2019-05-12T00:15:31.975Z,0.0434
2019-05-12T00:15:38.522Z,0.0000
2019-05-12T00:15:47.627Z,0.9232
2019-05-12T00:15:58.311Z,0.4635
2019-05-12T00:16:08.610Z,0.0000
2019-05-12T00:16:17.694Z,0.0000
2019-05-12T00:16:28.337Z,0.4589
2019-05-12T00:16:38.344Z,1.3741
2019-05-12T00:16:48.938Z,0.9296
2019-05-12T00:16:58.010Z,0.9313
2019-05-12T00:17:08.094Z,0.4608
2019-05-12T00:17:15.777Z,0.4614
2019-05-12T00:17:28.325Z,1.3797
2019-05-12T00:17:35.998Z,0.9215
2019-05-12T00:17:48.074Z,0.4637
2019-05-12T00:17:58.399Z,0.9266
2019-05-12T00:18:09.114Z,0.9498
2019-05-12T00:18:18.073Z,0.9279
2019-05-12T00:18:25.756Z,0.9224
2019-05-12T00:18:37.626Z,0.9288
2019-05-12T00:18:45.392Z,1.8346
2019-05-12T00:18:58.615Z,0.9279
2019-05-12T00:19:06.310Z,0.4580
2019-05-12T00:19:17.922Z,0.0000
2019-05-12T00:19:25.687Z,0.0000
2019-05-12T00:19:37.654Z,0.0000
2019-05-12T00:19:48.000Z,0.0000
2019-05-12T00:19:58.350Z,0.0000
2019-05-12T00:20:08.337Z,0.4631
2019-05-12T00:20:18.076Z,0.0000
2019-05-12T00:20:28.154Z,0.0000
2019-05-12T00:20:35.995Z,0.0000
2019-05-12T00:20:47.668Z,0.4599
2019-05-12T00:20:57.970Z,0.9232
2019-05-12T00:21:05.565Z,0.9309
2019-05-12T00:21:28.279Z,0.0000
2019-05-12T00:21:39.213Z,0.0000
2019-05-12T00:21:48.284Z,0.0000
2019-05-12T00:21:56.019Z,0.9279
2019-05-12T00:22:07.656Z,2.3208
2019-05-12T00:22:28.540Z,1.4009
2019-05-12T00:22:38.119Z,0.9258
2019-05-12T00:22:45.729Z,0.9232
2019-05-12T00:22:58.026Z,0.9296
2019-05-12T00:23:19.920Z,0.4644
2019-05-12T00:23:26.686Z,0.3170
2019-05-12T00:23:28.750Z,0.3182
2019-05-12T00:23:38.202Z,0.0000
2019-05-12T00:23:47.639Z,0.0000
2019-05-12T00:23:58.248Z,0.4601
2019-05-12T00:24:07.932Z,0.0000
2019-05-12T00:24:18.613Z,0.6342
2019-05-12T00:24:28.019Z,0.9322
2019-05-12T00:24:35.665Z,1.3880
2019-05-12T00:24:47.752Z,1.3970
2019-05-12T00:24:55.464Z,0.9288
2019-05-12T00:25:08.827Z,0.0000
2019-05-12T00:25:18.163Z,0.0000
2019-05-12T00:25:28.128Z,0.4635
2019-05-12T00:25:35.924Z,0.0000
2019-05-12T00:25:47.665Z,0.0000
2019-05-12T00:25:55.605Z,0.0000
2019-05-12T00:26:07.832Z,0.0000
2019-05-12T00:26:15.501Z,0.0000
2019-05-12T00:26:28.297Z,0.0000
2019-05-12T00:26:38.173Z,0.0000
2019-05-12T00:26:47.811Z,0.0000
2019-05-12T00:26:55.395Z,0.0000
2019-05-12T00:27:08.511Z,0.0000
2019-05-12T00:27:17.849Z,0.4616
2019-05-12T00:27:25.563Z,0.0000
2019-05-12T00:27:38.815Z,0.0000
2019-05-12T00:27:48.620Z,0.0000
2019-05-12T00:27:58.546Z,0.0000
2019-05-12T00:28:25.675Z,0.0000
2019-05-12T00:28:37.566Z,0.0000
2019-05-12T00:28:48.220Z,0.0000
2019-05-12T00:28:55.838Z,0.0000
2019-05-12T00:29:07.685Z,0.0000
2019-05-12T00:29:15.410Z,0.0000
2019-05-12T00:29:28.635Z,0.0000
2019-05-12T00:29:37.877Z,0.0000
2019-05-12T00:29:45.404Z,0.0000
2019-05-12T00:30:09.661Z,0.0000
2019-05-12T00:30:18.413Z,0.0000
2019-05-12T00:30:27.714Z,0.0000
2019-05-12T00:30:38.889Z,0.0000
2019-05-12T00:30:48.676Z,0.0000
2019-05-12T00:30:58.069Z,0.0000
2019-05-12T00:31:08.239Z,0.4620
2019-05-12T00:31:15.936Z,0.4637
2019-05-12T00:31:27.996Z,0.0000
2019-05-12T00:31:35.662Z,0.0000
2019-05-12T00:31:58.032Z,0.0000
2019-05-12T00:32:05.726Z,0.0000
2019-05-12T00:32:17.813Z,0.0000
2019-05-12T00:32:28.078Z,0.4648
2019-05-12T00:32:38.437Z,0.9292
2019-05-12T00:32:58.029Z,1.3912
2019-05-12T00:33:05.650Z,0.4646
2019-05-12T00:33:28.220Z,0.4629
2019-05-12T00:33:35.892Z,0.4657
2019-05-12T00:33:47.602Z,0.4665
2019-05-12T00:33:55.591Z,0.0000
2019-05-12T00:34:07.855Z,0.0000
2019-05-12T00:34:15.392Z,0.9318
2019-05-12T00:34:28.870Z,0.9283
2019-05-12T00:34:38.497Z,0.4633
2019-05-12T00:34:48.050Z,0.0000
2019-05-12T00:34:55.694Z,0.4603
2019-05-12T00:35:07.660Z,0.4655
2019-05-12T00:35:15.475Z,1.3710
2019-05-12T00:35:28.483Z,0.4646
2019-05-12T00:35:38.102Z,0.4618
2019-05-12T00:35:48.128Z,0.4595
2019-05-12T00:36:07.992Z,0.9313
2019-05-12T00:36:15.652Z,0.9232
2019-05-12T00:36:29.289Z,0.9279
2019-05-12T00:36:37.980Z,0.4625
2019-05-12T00:36:45.611Z,0.4667
2019-05-12T00:36:57.805Z,1.8541
2019-05-12T00:37:05.386Z,0.9103
2019-05-12T00:37:25.899Z,0.9270
2019-05-12T00:37:39.858Z,0.3712
2019-05-12T00:37:45.575Z,0.3165
2019-05-12T00:37:57.760Z,1.4002
2019-05-12T00:38:05.364Z,1.3766
2019-05-12T00:38:27.835Z,0.9224
2019-05-12T00:38:35.459Z,1.8644
2019-05-12T00:38:48.526Z,1.4002
2019-05-12T00:38:58.016Z,1.8490
2019-05-12T00:39:08.547Z,0.9219
2019-05-12T00:39:27.872Z,1.3524
2019-05-12T00:39:35.548Z,1.8430
2019-05-12T00:39:47.921Z,1.3944
2019-05-12T00:39:58.177Z,0.9270
2019-05-12T00:40:05.784Z,0.9275
2019-05-12T00:40:15.452Z,0.9309
2019-05-12T00:40:28.069Z,0.4663
2019-05-12T00:40:35.675Z,0.4646
2019-05-12T00:40:47.695Z,0.4648
2019-05-12T00:40:55.474Z,0.4665
2019-05-12T00:41:08.729Z,0.0000
2019-05-12T00:41:28.262Z,0.7840
2019-05-12T00:41:44.376Z,0.2823
2019-05-12T00:41:48.383Z,0.0000
2019-05-12T00:41:58.488Z,0.4629
2019-05-12T00:42:07.791Z,0.4549
2019-05-12T00:42:15.412Z,0.4670
2019-05-12T00:42:30.455Z,0.2826
2019-05-12T00:42:48.420Z,0.8961
2019-05-12T00:42:57.743Z,0.9335
2019-05-12T00:43:05.441Z,1.8592
2019-05-12T00:43:27.930Z,2.3176
2019-05-12T00:43:38.124Z,1.3925
2019-05-12T00:43:45.760Z,0.9249
2019-05-12T00:43:55.453Z,1.8661
2019-05-12T00:44:08.805Z,1.8532
2019-05-12T00:44:36.111Z,0.9186
2019-05-12T00:44:47.739Z,0.4610
2019-05-12T00:44:55.435Z,0.4618
2019-05-12T00:45:08.095Z,0.0000
2019-05-12T00:45:29.165Z,0.0000
2019-05-12T00:45:38.589Z,0.0000
2019-05-12T00:45:48.250Z,0.0000
2019-05-12T00:45:55.902Z,0.0000
2019-05-12T00:46:07.818Z,0.0000
2019-05-12T00:46:27.939Z,0.9123
2019-05-12T00:46:35.555Z,1.3855
2019-05-12T00:46:48.799Z,0.9152
2019-05-12T00:46:57.714Z,0.4622
2019-05-12T00:47:08.202Z,1.3861
2019-05-12T00:47:25.485Z,0.6312
2019-05-12T00:47:38.926Z,0.0000
2019-05-12T00:47:47.964Z,0.0000
2019-05-12T00:47:57.789Z,0.0000
2019-05-12T00:48:08.738Z,0.0000
2019-05-12T00:48:17.916Z,0.0000
2019-05-12T00:48:25.527Z,0.0000
2019-05-12T00:48:37.645Z,0.0000
2019-05-12T00:48:48.219Z,0.4616
2019-05-12T00:48:58.393Z,0.4629
2019-05-12T00:49:07.968Z,0.0000
2019-05-12T00:49:15.704Z,0.4665
2019-05-12T00:49:26.187Z,0.9292
2019-05-12T00:49:37.921Z,1.2768
2019-05-12T00:49:45.503Z,1.3867
2019-05-12T00:49:58.380Z,0.2817
2019-05-12T00:50:08.120Z,0.6336
2019-05-12T00:50:18.309Z,0.4644
2019-05-12T00:50:26.018Z,0.4620
2019-05-12T00:50:37.986Z,0.0000
2019-05-12T00:50:48.580Z,0.9152
2019-05-12T00:50:58.208Z,0.4625
2019-05-12T00:51:07.796Z,0.0000
2019-05-12T00:51:15.556Z,0.4570
2019-05-12T00:51:25.509Z,0.4545
2019-05-12T00:51:38.376Z,0.9253
2019-05-12T00:51:48.376Z,0.4614
2019-05-12T00:51:56.144Z,0.0000
2019-05-12T00:52:07.958Z,0.4597
2019-05-12T00:52:15.665Z,0.4672
2019-05-12T00:52:28.147Z,0.4644
2019-05-12T00:52:37.968Z,1.3772
2019-05-12T00:52:46.038Z,1.8296
2019-05-12T00:52:58.010Z,1.3964
2019-05-12T00:53:08.605Z,2.2975
2019-05-12T00:53:18.853Z,1.8713
2019-05-12T00:53:42.726Z,0.9182
2019-05-12T00:53:47.903Z,0.6372
2019-05-12T00:53:55.495Z,1.4002
2019-05-12T00:54:09.086Z,1.3861
2019-05-12T00:54:17.825Z,0.4650
2019-05-12T00:54:25.470Z,0.4629
2019-05-12T00:54:37.637Z,0.0000
2019-05-12T00:54:58.565Z,0.0000
2019-05-12T00:55:07.945Z,0.0000
2019-05-12T00:55:18.276Z,0.4627
2019-05-12T00:55:28.785Z,0.9326
2019-05-12T00:55:37.828Z,0.9270
2019-05-12T00:55:47.603Z,0.4625
2019-05-12T00:55:57.952Z,0.9140
2019-05-12T00:56:05.525Z,0.9249
2019-05-12T00:56:17.784Z,1.3810
2019-05-12T00:56:28.498Z,0.9339
2019-05-12T00:56:48.021Z,0.9241
2019-05-12T00:56:58.548Z,0.3168
2019-05-12T00:57:07.793Z,0.9241
2019-05-12T00:57:15.430Z,0.4642
2019-05-12T00:57:28.630Z,0.0000
2019-05-12T00:57:38.298Z,0.3158
2019-05-12T00:57:48.020Z,0.4620
2019-05-12T00:57:58.109Z,0.0000
2019-05-12T00:58:08.261Z,1.3874
2019-05-12T00:58:19.581Z,0.9339
2019-05-12T00:58:27.758Z,0.4646
2019-05-12T00:58:35.672Z,2.3294
2019-05-12T00:58:48.785Z,1.8592
2019-05-12T00:58:58.012Z,1.3925
2019-05-12T00:59:08.117Z,0.9309
2019-05-12T00:59:15.914Z,0.9292
2019-05-12T00:59:27.806Z,0.4670
2019-05-12T00:59:35.491Z,0.9318
2019-05-12T00:59:47.780Z,0.8961
2019-05-12T00:59:58.216Z,0.9090
2019-05-12T01:00:05.814Z,0.9253
2019-05-12T01:00:17.732Z,2.2891
2019-05-12T01:00:25.448Z,0.9236
2019-05-12T01:00:40.462Z,0.4616
2019-05-12T01:00:48.296Z,0.3191
2019-05-12T01:01:08.192Z,0.9288
2019-05-12T01:01:18.405Z,0.4587
2019-05-12T01:01:27.998Z,0.0000
2019-05-12T01:01:37.996Z,1.3918
2019-05-12T01:01:48.042Z,0.9322
2019-05-12T01:01:55.752Z,1.3760
2019-05-12T01:02:07.843Z,0.9236
2019-05-12T01:02:15.596Z,1.3918
2019-05-12T01:02:28.656Z,2.7557
2019-05-12T01:02:37.947Z,1.3772
2019-05-12T01:02:45.631Z,2.3294
2019-05-12T01:02:58.336Z,0.4633
2019-05-12T01:03:08.418Z,0.0000
2019-05-12T01:03:15.878Z,0.3159
2019-05-12T01:03:27.969Z,0.9462
2019-05-12T01:03:38.198Z,1.3779
2019-05-12T01:03:48.377Z,0.6306
2019-05-12T01:03:57.952Z,1.3835
2019-05-12T01:04:08.887Z,0.9228
2019-05-12T01:04:17.565Z,0.9228
2019-05-12T01:04:38.112Z,1.2534
2019-05-12T01:04:48.716Z,1.8414
2019-05-12T01:04:58.108Z,1.3766
2019-05-12T01:05:05.778Z,0.0000
2019-05-12T01:05:17.589Z,0.0000
2019-05-12T01:05:26.347Z,0.4612
2019-05-12T01:05:38.396Z,0.4595
2019-05-12T01:05:48.566Z,0.4612
2019-05-12T01:05:57.738Z,0.4572
2019-05-12T01:06:05.459Z,0.0000
2019-05-12T01:06:17.809Z,0.0000
2019-05-12T01:06:25.477Z,0.0000
2019-05-12T01:06:38.733Z,0.0000
2019-05-12T01:06:48.680Z,0.3147
2019-05-12T01:06:58.273Z,0.6320
2019-05-12T01:07:05.890Z,1.3855
2019-05-12T01:07:18.372Z,0.9009
2019-05-12T01:07:27.739Z,1.3779
2019-05-12T01:07:38.056Z,0.9049
2019-05-12T01:07:48.261Z,0.9098
2019-05-12T01:07:58.340Z,0.3170
2019-05-12T01:08:08.477Z,0.9313
2019-05-12T01:08:18.667Z,0.9270
2019-05-12T01:08:27.875Z,0.4622
2019-05-12T01:08:38.324Z,1.8670
2019-05-12T01:08:45.978Z,2.3348
2019-05-12T01:08:57.784Z,0.4631
2019-05-12T01:09:05.451Z,0.0000
2019-05-12T01:09:17.717Z,0.0000
2019-05-12T01:09:28.161Z,0.4620
2019-05-12T01:09:35.832Z,0.4618
2019-05-12T01:09:45.483Z,1.8515
2019-05-12T01:09:58.074Z,1.8549
2019-05-12T01:10:08.456Z,1.3880
2019-05-12T01:10:17.945Z,1.8679
2019-05-12T01:10:28.586Z,1.2764
2019-05-12T01:10:38.587Z,1.3925
2019-05-12T01:10:47.912Z,0.9236
2019-05-12T01:10:55.544Z,0.9236
2019-05-12T01:11:18.470Z,2.3101
2019-05-12T01:11:37.832Z,1.3976
2019-05-12T01:11:45.541Z,0.9236
2019-05-12T01:11:58.762Z,1.8566
2019-05-12T01:12:07.957Z,1.3874
2019-05-12T01:12:15.548Z,0.4652
2019-05-12T01:12:28.584Z,1.8653
2019-05-12T01:12:38.217Z,1.8635
2019-05-12T01:12:48.510Z,1.3835
2019-05-12T01:12:58.159Z,1.3861
2019-05-12T01:13:08.272Z,1.8330
2019-05-12T01:13:18.419Z,1.8592
2019-05-12T01:13:27.940Z,0.9322
2019-05-12T01:13:35.661Z,1.8498
2019-05-12T01:13:46.009Z,1.8541
2019-05-12T01:13:58.295Z,0.9510
2019-05-12T01:14:08.626Z,0.6380
2019-05-12T01:14:18.712Z,1.9080
2019-05-12T01:14:27.876Z,1.8464
2019-05-12T01:14:35.499Z,1.8296
2019-05-12T01:14:58.025Z,0.9275
2019-05-12T01:15:07.509Z,0.4622
2019-05-12T01:15:17.822Z,0.0000
2019-05-12T01:15:25.439Z,0.0000
2019-05-12T01:15:37.965Z,0.0000
2019-05-12T01:15:45.609Z,0.0000
2019-05-12T01:15:58.675Z,0.0000
2019-05-12T01:16:08.097Z,0.0000
2019-05-12T01:16:15.767Z,1.3779
2019-05-12T01:16:25.477Z,0.9173
2019-05-12T01:16:48.610Z,0.3179
2019-05-12T01:16:57.917Z,0.0000
2019-05-12T01:17:05.513Z,0.0000
2019-05-12T01:17:17.815Z,0.4612
2019-05-12T01:17:25.379Z,0.0000
2019-05-12T01:17:35.851Z,0.0000
2019-05-12T01:17:47.658Z,0.0000
2019-05-12T01:17:55.377Z,2.3208
2019-05-12T01:18:09.462Z,1.8575
2019-05-12T01:18:18.363Z,0.4595
2019-05-12T01:18:27.658Z,0.9249
2019-05-12T01:18:38.512Z,1.5845
2019-05-12T01:18:48.009Z,3.2298
2019-05-12T01:18:55.618Z,0.4629
2019-05-12T01:19:08.066Z,1.3791
2019-05-12T01:19:18.350Z,2.3027
2019-05-12T01:19:28.633Z,1.8397
2019-05-12T01:19:37.471Z,1.8566
2019-05-12T01:19:45.637Z,1.2748
2019-05-12T01:19:58.394Z,1.8371
2019-05-12T01:20:08.672Z,1.3951
2019-05-12T01:20:17.877Z,0.9224
2019-05-12T01:20:28.017Z,1.3899
2019-05-12T01:20:38.744Z,0.9275
2019-05-12T01:20:47.940Z,0.9258
2019-05-12T01:20:55.603Z,3.2521
2019-05-12T01:21:07.862Z,3.6793
2019-05-12T01:21:15.445Z,1.8498
2019-05-12T01:21:37.736Z,0.0000
2019-05-12T01:21:45.439Z,0.4648
2019-05-12T01:21:58.796Z,0.9236
2019-05-12T01:22:18.688Z,0.9245
2019-05-12T01:22:27.744Z,0.0000
2019-05-12T01:22:35.367Z,0.0000
2019-05-12T01:22:50.420Z,0.4646
2019-05-12T01:22:57.915Z,0.0000
2019-05-12T01:23:08.549Z,0.0000
2019-05-12T01:23:28.123Z,0.0000
2019-05-12T01:23:35.764Z,0.4670
2019-05-12T01:23:56.388Z,0.0000
2019-05-12T01:24:02.703Z,0.5319
2019-05-12T01:24:08.805Z,0.0000
2019-05-12T01:24:18.531Z,0.0000
2019-05-12T01:24:28.207Z,0.0000
2019-05-12T01:24:37.896Z,0.0000
2019-05-12T01:24:48.200Z,2.3176
2019-05-12T01:24:57.844Z,2.3187
2019-05-12T01:25:05.606Z,1.3629
2019-05-12T01:25:17.594Z,1.3848
2019-05-12T01:25:25.515Z,1.8575
2019-05-12T01:25:39.612Z,0.9339
2019-05-12T01:25:58.546Z,0.0000
2019-05-12T01:26:08.661Z,1.3785
2019-05-12T01:26:17.858Z,1.8388
2019-05-12T01:26:28.325Z,2.3230
2019-05-12T01:26:38.560Z,1.3848
2019-05-12T01:26:47.648Z,0.9279
2019-05-12T01:26:58.181Z,1.8414
2019-05-12T01:27:05.905Z,0.9270
2019-05-12T01:27:17.968Z,1.3918
2019-05-12T01:27:25.675Z,0.9275
2019-05-12T01:27:37.873Z,1.3861
2019-05-12T01:27:48.244Z,1.3804
2019-05-12T01:27:58.607Z,0.4639
2019-05-12T01:28:07.948Z,0.8505
2019-05-12T01:28:18.377Z,2.3027
2019-05-12T01:28:27.824Z,0.9331
2019-05-12T01:28:35.496Z,0.9275
2019-05-12T01:28:48.799Z,1.8507
2019-05-12T01:28:58.017Z,0.9207
2019-05-12T01:29:05.667Z,0.9249
2019-05-12T01:29:17.788Z,0.9253
2019-05-12T01:29:25.404Z,1.3697
2019-05-12T01:29:38.537Z,0.9253
2019-05-12T01:29:48.083Z,0.4642
2019-05-12T01:29:58.014Z,0.0000
2019-05-12T01:30:05.609Z,0.0000
2019-05-12T01:30:18.108Z,0.0000
2019-05-12T01:30:28.167Z,0.0000
2019-05-12T01:30:36.024Z,0.9326
2019-05-12T01:30:47.896Z,1.3848
2019-05-12T01:30:55.556Z,1.3925
2019-05-12T01:31:08.439Z,1.3791
2019-05-12T01:31:18.052Z,0.9322
2019-05-12T01:31:25.624Z,0.0000
2019-05-12T01:31:40.765Z,0.2823
2019-05-12T01:31:48.626Z,0.0000
2019-05-12T01:31:58.580Z,0.4627
2019-05-12T01:32:07.871Z,0.9266
2019-05-12T01:32:15.598Z,1.3722
2019-05-12T01:32:38.270Z,0.9309
2019-05-12T01:32:45.879Z,1.3918
2019-05-12T01:32:57.456Z,1.8575
2019-05-12T01:33:08.534Z,0.9219
2019-05-12T01:33:18.429Z,1.3899
2019-05-12T01:33:27.770Z,1.8498
2019-05-12T01:33:38.097Z,1.8507
2019-05-12T01:33:48.594Z,1.8414
2019-05-12T01:33:58.443Z,1.8305
2019-05-12T01:34:08.074Z,1.3918
2019-05-12T01:34:15.750Z,1.3931
2019-05-12T01:34:27.603Z,0.9219
2019-05-12T01:34:35.376Z,0.9215
2019-05-12T01:34:48.208Z,0.0000
2019-05-12T01:34:57.782Z,0.9203
2019-05-12T01:35:05.370Z,1.3931
2019-05-12T01:35:28.126Z,0.3977
2019-05-12T01:35:38.425Z,0.9241
2019-05-12T01:35:52.286Z,0.5652
2019-05-12T01:35:58.684Z,1.8566
2019-05-12T01:36:07.945Z,1.3816
2019-05-12T01:36:15.581Z,1.3874
2019-05-12T01:36:28.620Z,1.3912
2019-05-12T01:36:38.102Z,0.9275
2019-05-12T01:36:48.367Z,0.0000
2019-05-12T01:36:55.934Z,0.0000
2019-05-12T01:37:07.880Z,0.4646
2019-05-12T01:37:27.833Z,0.4404
2019-05-12T01:37:35.559Z,0.4661
2019-05-12T01:37:48.431Z,0.9241
2019-05-12T01:38:01.120Z,1.8566
2019-05-12T01:38:08.010Z,0.2855
2019-05-12T01:38:18.075Z,0.4625
2019-05-12T01:38:25.790Z,0.4625
2019-05-12T01:38:37.914Z,0.4648
2019-05-12T01:38:48.152Z,0.0000
2019-05-12T01:38:55.877Z,0.0000
2019-05-12T01:39:07.753Z,0.0000
2019-05-12T01:39:15.720Z,0.0000
2019-05-12T01:39:27.659Z,0.0000
2019-05-12T01:39:38.327Z,0.0000
2019-05-12T01:39:45.860Z,0.0000
2019-05-12T01:39:59.727Z,0.0000
2019-05-12T01:40:08.486Z,0.2790
2019-05-12T01:40:28.237Z,0.0000
2019-05-12T01:40:39.288Z,0.4464
2019-05-12T01:40:47.890Z,0.4601
2019-05-12T01:40:58.210Z,0.0000
2019-05-12T01:41:05.952Z,0.4639
2019-05-12T01:41:25.458Z,0.9322
2019-05-12T01:41:38.948Z,0.0000
2019-05-12T01:41:48.135Z,0.0000
2019-05-12T01:41:58.706Z,0.0000
2019-05-12T01:42:09.010Z,0.0000
2019-05-12T01:42:25.378Z,0.4601
2019-05-12T01:42:38.261Z,0.0000
2019-05-12T01:42:48.338Z,0.3168
2019-05-12T01:42:58.284Z,0.4625
2019-05-12T01:43:08.261Z,0.0000
2019-05-12T01:43:27.798Z,0.0000
2019-05-12T01:43:35.432Z,0.0000
2019-05-12T01:43:48.779Z,0.0000
2019-05-12T01:43:58.370Z,0.0000
2019-05-12T01:44:05.990Z,0.0000
2019-05-12T01:44:28.679Z,0.9318
2019-05-12T01:44:38.200Z,0.0000
2019-05-12T01:44:48.068Z,0.0000
2019-05-12T01:44:55.721Z,1.3874
2019-05-12T01:45:05.388Z,1.3931
2019-05-12T01:45:28.464Z,0.4612
2019-05-12T01:45:37.997Z,1.4009
2019-05-12T01:45:48.114Z,0.9219
2019-05-12T01:45:58.828Z,1.3525
2019-05-12T01:46:08.109Z,1.8189
2019-05-12T01:46:18.018Z,1.3691
2019-05-12T01:46:25.667Z,1.8687
2019-05-12T01:46:38.312Z,1.3906
2019-05-12T01:46:48.246Z,0.9335
2019-05-12T01:46:57.738Z,1.4015
2019-05-12T01:47:05.378Z,0.9279
2019-05-12T01:47:25.956Z,0.0000
2019-05-12T01:47:38.249Z,1.8490
2019-05-12T01:47:48.445Z,1.8498
2019-05-12T01:47:58.740Z,1.4009
2019-05-12T01:48:08.742Z,2.3123
2019-05-12T01:48:28.688Z,1.9014
2019-05-12T01:48:37.763Z,1.3722
2019-05-12T01:48:48.383Z,2.3165
2019-05-12T01:49:01.735Z,0.5652
2019-05-12T01:49:08.251Z,1.3970
2019-05-12T01:49:28.916Z,1.8609
2019-05-12T01:49:38.237Z,1.3804
2019-05-12T01:49:45.805Z,0.9326
2019-05-12T01:49:57.981Z,0.4646
2019-05-12T01:50:05.714Z,1.3886
2019-05-12T01:50:17.642Z,2.3091
2019-05-12T01:50:28.364Z,1.3944
2019-05-12T01:50:38.334Z,0.0000
2019-05-12T01:50:47.604Z,0.9190
2019-05-12T01:50:57.955Z,2.3101
2019-05-12T01:51:05.638Z,1.8313
2019-05-12T01:51:28.336Z,0.4620
2019-05-12T01:51:47.699Z,0.9258
2019-05-12T01:51:58.155Z,0.9309
2019-05-12T01:52:05.838Z,0.4657
2019-05-12T01:52:28.430Z,0.0000
2019-05-12T01:52:38.395Z,0.4635
2019-05-12T01:52:47.826Z,0.0000
2019-05-12T01:52:55.474Z,0.9313
2019-05-12T01:53:08.699Z,1.3931
2019-05-12T01:53:15.362Z,0.4599
2019-05-12T01:53:28.700Z,1.3874
2019-05-12T01:53:37.877Z,1.3931
2019-05-12T01:53:48.278Z,0.3175
2019-05-12T01:54:08.598Z,0.9207
2019-05-12T01:54:13.883Z,0.5495
2019-05-12T01:54:27.790Z,0.0000
2019-05-12T01:54:35.426Z,0.4637
2019-05-12T01:54:48.311Z,0.0000
2019-05-12T01:54:56.006Z,0.0000
2019-05-12T01:55:07.991Z,0.0000
2019-05-12T01:55:28.121Z,0.9279
2019-05-12T01:55:38.309Z,0.9331
2019-05-12T01:55:48.345Z,0.4642
2019-05-12T01:55:58.389Z,0.4670
2019-05-12T01:56:07.874Z,0.4603
2019-05-12T01:56:15.507Z,0.4620
2019-05-12T01:56:28.802Z,1.3797
2019-05-12T01:56:38.301Z,0.9266
2019-05-12T01:56:48.132Z,0.9253
2019-05-12T01:56:58.622Z,1.8296
2019-05-12T01:57:08.126Z,1.8575
2019-05-12T01:57:15.764Z,1.3848
2019-05-12T01:57:25.499Z,0.4622
2019-05-12T01:57:38.534Z,0.4593
2019-05-12T01:57:45.504Z,0.0000
2019-05-12T01:57:57.731Z,0.0000
2019-05-12T01:58:05.524Z,0.0000
2019-05-12T01:58:19.062Z,0.0000
2019-05-12T01:58:27.817Z,0.0000
2019-05-12T01:58:35.472Z,0.0000
2019-05-12T01:58:48.290Z,0.0000
2019-05-12T01:58:57.834Z,0.4657
2019-05-12T01:59:05.434Z,2.7979
2019-05-12T01:59:18.502Z,2.3144
2019-05-12T01:59:26.138Z,1.3906
2019-05-12T01:59:38.019Z,0.9107
2019-05-12T01:59:48.268Z,0.0000
2019-05-12T01:59:58.617Z,0.9194
2019-05-12T02:00:08.036Z,2.3123
2019-05-12T02:00:15.699Z,1.8313
2019-05-12T02:00:27.915Z,2.3112
2019-05-12T02:00:38.899Z,0.4642
2019-05-12T02:00:48.228Z,0.0000
2019-05-12T02:00:58.672Z,0.4124
2019-05-12T02:01:08.230Z,0.0000
2019-05-12T02:01:15.862Z,0.0000
2019-05-12T02:01:27.541Z,0.0000
2019-05-12T02:01:35.798Z,0.9279
2019-05-12T02:01:45.446Z,0.4670
2019-05-12T02:01:58.150Z,0.0000
2019-05-12T02:02:05.766Z,0.0000
2019-05-12T02:02:17.705Z,0.4657
2019-05-12T02:02:25.441Z,0.9292
2019-05-12T02:02:38.612Z,0.0000
2019-05-12T02:02:48.043Z,0.0000
2019-05-12T02:02:58.158Z,0.0000
2019-05-12T02:03:08.902Z,0.0000
2019-05-12T02:03:17.856Z,0.0000
2019-05-12T02:03:25.539Z,0.4633
2019-05-12T02:03:37.751Z,0.4610
2019-05-12T02:03:45.360Z,1.3697
2019-05-12T02:03:58.579Z,1.3823
2019-05-12T02:04:11.681Z,0.2825
2019-05-12T02:04:18.104Z,0.4652
2019-05-12T02:04:25.800Z,0.4639
2019-05-12T02:04:40.859Z,0.1412
2019-05-12T02:04:45.529Z,0.0000
2019-05-12T02:04:58.781Z,0.4631
2019-05-12T02:05:08.579Z,0.4635
2019-05-12T02:05:21.818Z,0.0000
2019-05-12T02:05:28.204Z,0.0000
2019-05-12T02:05:37.971Z,0.0000
2019-05-12T02:05:45.683Z,0.0000
2019-05-12T02:05:58.023Z,0.0000
2019-05-12T02:06:08.274Z,0.0000
2019-05-12T02:06:18.448Z,0.9335
2019-05-12T02:06:27.907Z,0.9331
2019-05-12T02:06:40.973Z,0.2819
2019-05-12T02:06:45.422Z,0.9305
2019-05-12T02:06:57.767Z,0.4648
2019-05-12T02:07:08.352Z,0.0000
2019-05-12T02:07:18.541Z,0.0000
2019-05-12T02:07:28.005Z,0.0000
2019-05-12T02:07:35.541Z,0.0000
2019-05-12T02:07:47.958Z,0.4622
2019-05-12T02:07:58.108Z,0.4625
2019-05-12T02:08:06.028Z,0.4661
2019-05-12T02:08:15.981Z,0.4616
2019-05-12T02:08:27.817Z,0.9288
2019-05-12T02:08:38.357Z,0.4642
2019-05-12T02:08:47.755Z,0.0000
2019-05-12T02:08:58.047Z,0.9215
2019-05-12T02:09:07.989Z,1.3983
2019-05-12T02:09:15.613Z,2.3144
2019-05-12T02:09:27.998Z,1.4028
2019-05-12T02:09:35.614Z,0.4595
2019-05-12T02:09:48.076Z,0.4642
2019-05-12T02:09:55.634Z,0.0000
2019-05-12T02:10:09.304Z,0.0000
2019-05-12T02:10:17.989Z,0.4612
2019-05-12T02:10:25.710Z,0.4593
2019-05-12T02:10:35.433Z,0.0000
2019-05-12T02:10:48.080Z,0.4612
2019-05-12T02:10:55.700Z,0.9288
2019-05-12T02:11:07.852Z,1.3842
2019-05-12T02:11:15.463Z,0.4603
2019-05-12T02:11:28.741Z,0.0000
2019-05-12T02:11:37.977Z,0.0000
2019-05-12T02:11:45.692Z,0.0000
2019-05-12T02:11:55.390Z,0.0000
2019-05-12T02:12:08.233Z,0.0000
2019-05-12T02:12:18.157Z,0.0000
2019-05-12T02:12:38.344Z,0.0000
2019-05-12T02:12:48.766Z,0.0000
2019-05-12T02:12:59.048Z,0.0000
2019-05-12T02:13:07.875Z,0.0000
2019-05-12T02:13:15.632Z,0.0000
2019-05-12T02:13:38.109Z,0.0000
2019-05-12T02:13:45.765Z,0.0000
2019-05-12T02:13:57.881Z,0.0000
2019-05-12T02:14:09.004Z,0.0000